Time;durP1;ratioP1;P1;durP2;ratioP2;P2;SDS_P1;SDS_P2;PMS_P1;PMS_P2;Temp;Humidity;BMP_temperature;BMP_pressure;BME280_temperature;BME280_humidity;BME280_pressure;Samples;Min_cycle;Max_cycle;Signal;HPM_P1;HPM_P2
2023/08/04 00:01:55;;;;;;;7.50;2.92;;;;;;;14.81;94.52;100911.66;4991990;28;20022;-90
2023/08/04 00:04:21;;;;;;;5.65;2.45;;;;;;;14.80;94.48;100915.19;4974280;28;20049;-90
2023/08/04 00:06:46;;;;;;;7.22;2.88;;;;;;;14.80;94.34;100919.59;4993567;28;20109;-90
2023/08/04 00:09:11;;;;;;;6.40;2.85;;;;;;;14.76;94.08;100912.75;4974009;28;20022;-90
2023/08/04 00:11:36;;;;;;;6.05;2.70;;;;;;;14.71;94.14;100923.44;4992378;28;20038;-91
2023/08/04 00:14:02;;;;;;;5.28;2.45;;;;;;;14.67;94.80;100924.44;4991381;28;20026;-91
2023/08/04 00:16:27;;;;;;;6.57;2.60;;;;;;;14.65;95.17;100927.13;4992678;28;20026;-91
2023/08/04 00:18:52;;;;;;;7.45;3.13;;;;;;;14.65;95.05;100921.03;4989535;28;20410;-90
2023/08/04 00:21:17;;;;;;;5.57;2.75;;;;;;;14.64;95.23;100930.66;4991678;28;20022;-91
2023/08/04 00:23:43;;;;;;;5.30;2.75;;;;;;;14.64;95.12;100928.06;4992446;28;20114;-91
2023/08/04 00:26:08;;;;;;;5.32;2.50;;;;;;;14.64;95.83;100938.53;4991933;28;20394;-91
2023/08/04 00:28:33;;;;;;;7.82;3.05;;;;;;;14.64;94.83;100933.28;4985014;28;20043;-92
2023/08/04 00:30:58;;;;;;;6.72;2.75;;;;;;;14.64;95.18;100938.53;4970859;28;20389;-91
2023/08/04 00:33:24;;;;;;;6.07;2.63;;;;;;;14.62;94.99;100932.50;4993152;28;20096;-91
2023/08/04 00:35:49;;;;;;;7.03;2.97;;;;;;;14.62;95.36;100935.13;4974214;28;20501;-90
2023/08/04 00:38:14;;;;;;;5.50;2.90;;;;;;;14.61;95.08;100941.25;4992328;28;20037;-91
2023/08/04 00:40:40;;;;;;;5.18;3.03;;;;;;;14.60;95.17;100942.19;4991605;28;20022;-91
2023/08/04 00:43:05;;;;;;;9.02;3.20;;;;;;;14.58;95.30;100936.16;4992243;28;20025;-90
2023/08/04 00:45:32;;;;;;;7.38;3.50;;;;;;;14.55;95.11;100947.59;4991855;28;20038;-91
2023/08/04 00:47:58;;;;;;;6.85;3.20;;;;;;;14.53;95.13;100946.81;4972147;28;20033;-91
2023/08/04 00:50:23;;;;;;;9.30;3.05;;;;;;;14.51;95.12;100950.41;4989363;28;20100;-92
2023/08/04 00:52:50;;;;;;;5.63;2.88;;;;;;;14.49;95.13;100952.25;4979002;28;20482;-91
2023/08/04 00:55:17;;;;;;;6.82;2.83;;;;;;;14.48;95.03;100954.00;4985077;28;20470;-91
2023/08/04 00:57:43;;;;;;;6.78;3.13;;;;;;;14.47;95.21;100959.31;4992414;28;20030;-91
2023/08/04 01:00:09;;;;;;;6.32;3.03;;;;;;;14.45;95.35;100958.50;4991584;28;20033;-91
2023/08/04 01:02:34;;;;;;;8.70;3.60;;;;;;;14.44;95.28;100962.03;4992149;28;20117;-90
2023/08/04 01:05:01;;;;;;;8.27;3.33;;;;;;;14.41;95.42;100958.63;4992550;28;20073;-90
2023/08/04 01:07:30;;;;;;;6.10;3.05;;;;;;;14.42;95.46;100964.72;4992612;28;20113;-90
2023/08/04 01:10:25;;;;;;;10.38;3.35;;;;;;;14.44;94.90;100965.50;4992147;28;20022;-91
2023/08/04 01:12:57;;;;;;;6.68;3.30;;;;;;;14.44;95.40;100962.03;4971600;28;20221;-91
2023/08/04 01:15:26;;;;;;;8.38;3.25;;;;;;;14.44;95.55;100969.91;4992538;28;20076;-92
2023/08/04 01:17:54;;;;;;;8.95;3.47;;;;;;;14.45;95.16;100966.38;4992737;28;20027;-92
2023/08/04 01:20:19;;;;;;;8.05;2.90;;;;;;;14.43;95.08;100966.44;4967630;28;20042;-91
2023/08/04 01:22:45;;;;;;;6.25;3.30;;;;;;;14.43;95.02;100971.66;4974193;28;20528;-91
2023/08/04 01:25:10;;;;;;;7.15;3.65;;;;;;;14.41;95.40;100969.09;4987442;28;20430;-91
2023/08/04 01:27:40;;;;;;;7.80;3.28;;;;;;;14.41;95.53;100971.72;4988777;28;20026;-90
2023/08/04 01:30:18;;;;;;;8.38;3.40;;;;;;;14.42;95.55;100978.66;4983208;28;20032;-91
2023/08/04 01:32:43;;;;;;;6.25;3.28;;;;;;;14.40;95.41;100970.00;4977868;28;20026;-90
2023/08/04 01:35:10;;;;;;;7.90;3.60;;;;;;;14.40;95.45;100980.47;4977932;28;20018;-91
2023/08/04 01:37:35;;;;;;;7.00;3.05;;;;;;;14.39;95.48;100984.00;4990650;28;20030;-92
2023/08/04 01:40:01;;;;;;;8.85;3.33;;;;;;;14.39;95.61;100984.00;4978828;28;20023;-91
2023/08/04 01:42:26;;;;;;;8.40;3.70;;;;;;;14.38;95.72;100984.91;4979761;28;20383;-90
2023/08/04 01:44:51;;;;;;;10.25;3.63;;;;;;;14.37;95.48;100983.22;4990106;28;20027;-91
2023/08/04 01:47:16;;;;;;;7.65;3.38;;;;;;;14.38;95.69;100984.09;4990450;28;20134;-91
2023/08/04 01:49:42;;;;;;;7.93;3.30;;;;;;;14.37;95.62;100985.81;4957720;28;20031;-91
2023/08/04 01:52:07;;;;;;;7.30;3.45;;;;;;;14.36;95.54;100983.28;4979503;28;20027;-91
2023/08/04 01:54:32;;;;;;;7.82;3.63;;;;;;;14.35;95.71;100982.41;4990285;28;20394;-91
2023/08/04 01:56:58;;;;;;;8.30;3.80;;;;;;;14.36;95.87;100984.13;4975634;28;20031;-91
2023/08/04 01:59:23;;;;;;;7.43;3.75;;;;;;;14.35;95.59;100985.03;4986638;28;20022;-92
2023/08/04 02:01:48;;;;;;;7.68;3.85;;;;;;;14.34;95.80;100985.97;4984326;28;20085;-91
2023/08/04 02:04:13;;;;;;;8.30;3.78;;;;;;;14.33;95.81;100989.50;4992014;28;20113;-91
2023/08/04 02:06:39;;;;;;;8.55;3.83;;;;;;;14.30;95.47;100986.13;4973628;28;20038;-91
2023/08/04 02:09:04;;;;;;;9.95;4.03;;;;;;;14.27;95.89;100984.50;4988208;28;20489;-92
2023/08/04 02:11:31;;;;;;;7.38;3.80;;;;;;;14.24;95.96;100984.59;4992677;28;20034;-91
2023/08/04 02:13:57;;;;;;;7.13;3.50;;;;;;;14.21;96.10;100993.44;4982875;28;20022;-91
2023/08/04 02:16:23;;;;;;;8.90;3.78;;;;;;;14.19;96.36;100994.41;4991846;28;20057;-91
2023/08/04 02:18:48;;;;;;;8.85;3.85;;;;;;;14.18;96.09;100998.78;4985260;28;20128;-91
2023/08/04 02:21:14;;;;;;;6.18;3.50;;;;;;;14.17;96.36;101004.09;4992443;28;20489;-92
2023/08/04 02:23:39;;;;;;;9.32;4.07;;;;;;;14.15;96.14;100995.44;4992730;28;20118;-92
2023/08/04 02:26:04;;;;;;;9.35;3.58;;;;;;;14.11;96.28;100998.19;4993143;28;20037;-92
2023/08/04 02:28:29;;;;;;;8.55;3.58;;;;;;;14.10;96.13;101003.44;4992629;28;20170;-91
2023/08/04 02:30:55;;;;;;;10.05;3.78;;;;;;;14.06;96.15;101000.09;4990704;28;20030;-90
2023/08/04 02:33:20;;;;;;;11.55;3.95;;;;;;;14.05;96.13;101001.00;4993478;28;20041;-91
2023/08/04 02:35:46;;;;;;;7.13;3.53;;;;;;;14.03;96.07;100999.38;4992404;28;20026;-91
2023/08/04 02:38:12;;;;;;;9.27;3.63;;;;;;;14.01;96.12;101003.81;4994126;28;20022;-91
2023/08/04 02:40:37;;;;;;;7.47;3.50;;;;;;;13.98;96.19;101007.41;4991827;28;20433;-90
2023/08/04 02:43:02;;;;;;;6.15;3.45;;;;;;;13.96;96.20;101007.44;4990274;28;20041;-92
2023/08/04 02:45:28;;;;;;;7.30;3.88;;;;;;;13.95;96.32;101010.13;4994125;28;20022;-90
2023/08/04 02:47:53;;;;;;;9.63;3.95;;;;;;;13.93;96.56;101012.78;4991516;28;20066;-90
2023/08/04 02:50:18;;;;;;;6.97;4.05;;;;;;;13.93;96.55;101011.94;4992629;28;20026;-92
2023/08/04 02:52:44;;;;;;;9.00;3.75;;;;;;;13.92;96.74;101012.84;4992287;28;20396;-91
2023/08/04 02:55:10;;;;;;;9.43;3.60;;;;;;;13.91;96.83;101014.63;4995096;28;20030;-92
2023/08/04 02:57:35;;;;;;;9.13;3.83;;;;;;;13.90;96.69;101018.16;4993495;28;20490;-91
2023/08/04 03:00:00;;;;;;;10.57;4.40;;;;;;;13.91;96.98;101014.63;4992944;28;20065;-90
2023/08/04 03:02:26;;;;;;;10.55;3.60;;;;;;;13.91;97.20;101014.63;4990494;28;20421;-91
2023/08/04 03:04:51;;;;;;;9.85;3.88;;;;;;;13.91;97.57;101008.53;4992003;28;20042;-90
2023/08/04 03:07:17;;;;;;;8.82;3.72;;;;;;;13.92;97.46;101016.31;4992612;28;20030;-90
2023/08/04 03:09:42;;;;;;;9.10;3.85;;;;;;;13.94;98.07;101016.25;4993960;28;20088;-91
2023/08/04 03:12:08;;;;;;;7.05;3.40;;;;;;;13.95;97.80;101016.19;4991207;28;20045;-91
2023/08/04 03:14:33;;;;;;;8.40;3.92;;;;;;;13.96;97.93;101014.44;4993113;28;20319;-91
2023/08/04 03:16:58;;;;;;;8.27;3.58;;;;;;;13.98;97.96;101017.88;4992289;28;20501;-91
2023/08/04 03:19:23;;;;;;;10.20;3.92;;;;;;;13.99;98.16;101011.72;4987017;28;20058;-91
2023/08/04 03:21:49;;;;;;;9.02;3.45;;;;;;;14.01;97.77;101022.97;4975806;28;20046;-91
2023/08/04 03:24:14;;;;;;;9.73;3.80;;;;;;;14.02;97.83;101019.44;4974006;28;20128;-92
2023/08/04 03:26:39;;;;;;;7.75;3.90;;;;;;;14.03;98.12;101022.91;4981383;28;20033;-91
2023/08/04 03:29:04;;;;;;;9.05;3.75;;;;;;;14.04;98.11;101022.84;4975387;28;20493;-91
2023/08/04 03:31:30;;;;;;;8.30;3.83;;;;;;;14.04;98.14;101029.84;4979419;28;20105;-91
2023/08/04 03:33:55;;;;;;;8.98;3.80;;;;;;;14.06;98.09;101028.03;4983304;28;20030;-91
2023/08/04 03:36:20;;;;;;;8.57;3.90;;;;;;;14.05;98.15;101027.16;4965175;28;20027;-91
2023/08/04 03:38:46;;;;;;;8.48;3.88;;;;;;;14.07;98.30;101030.59;4978154;28;20037;-91
2023/08/04 03:41:11;;;;;;;7.50;3.78;;;;;;;14.06;98.22;101026.25;4980320;28;20042;-91
2023/08/04 03:43:36;;;;;;;7.80;4.03;;;;;;;14.06;98.38;101028.03;4987733;28;20026;-92
2023/08/04 03:46:01;;;;;;;6.72;3.60;;;;;;;14.06;98.30;101033.28;4971625;28;20479;-90
2023/08/04 03:48:27;;;;;;;7.13;3.85;;;;;;;14.05;98.64;101032.41;4986406;28;20033;-91
2023/08/04 03:50:52;;;;;;;7.20;3.72;;;;;;;14.05;98.74;101035.03;4975253;28;20027;-91
2023/08/04 03:53:17;;;;;;;8.52;3.92;;;;;;;14.05;98.54;101029.78;4983973;28;20036;-91
2023/08/04 03:55:42;;;;;;;9.02;4.03;;;;;;;14.06;99.08;101035.88;4985566;28;20046;-91
2023/08/04 03:58:08;;;;;;;7.93;3.90;;;;;;;14.05;98.88;101032.41;4972532;28;20459;-90
2023/08/04 04:00:33;;;;;;;7.28;3.72;;;;;;;14.06;99.15;101034.13;4973888;28;20097;-91
2023/08/04 04:02:59;;;;;;;7.43;3.80;;;;;;;14.08;99.05;101041.91;4973725;28;20029;-90
2023/08/04 04:05:24;;;;;;;8.63;3.78;;;;;;;14.07;99.17;101035.81;4973896;28;20470;-91
2023/08/04 04:07:49;;;;;;;7.75;3.80;;;;;;;14.08;99.21;101040.16;4973340;28;20158;-90
2023/08/04 04:10:15;;;;;;;6.40;3.92;;;;;;;14.08;99.11;101047.16;4959697;28;20031;-90
2023/08/04 04:12:40;;;;;;;8.18;3.55;;;;;;;14.08;99.19;101041.91;4957896;28;20085;-91
2023/08/04 04:15:06;;;;;;;7.65;4.32;;;;;;;14.08;99.34;101042.75;4974129;28;20374;-92
2023/08/04 04:17:31;;;;;;;7.97;3.65;;;;;;;14.08;99.35;101048.00;4973587;28;20377;-91
2023/08/04 04:19:56;;;;;;;7.72;3.83;;;;;;;14.08;99.37;101039.31;4985254;28;20050;-91
2023/08/04 04:22:22;;;;;;;8.43;3.80;;;;;;;14.08;99.50;101045.38;4992677;28;20484;-90
2023/08/04 04:24:47;;;;;;;8.27;3.97;;;;;;;14.07;99.22;101050.69;4991177;28;20076;-90
2023/08/04 04:27:13;;;;;;;8.50;3.65;;;;;;;14.08;99.60;101055.00;4993045;28;20496;-91
2023/08/04 04:29:38;;;;;;;7.20;4.18;;;;;;;14.07;99.45;101055.91;4989591;28;20041;-90
2023/08/04 04:32:04;;;;;;;5.95;3.65;;;;;;;14.07;99.56;101064.59;4973167;28;20022;-91
2023/08/04 04:34:29;;;;;;;6.38;4.00;;;;;;;14.06;99.54;101062.06;4973977;28;20026;-90
2023/08/04 04:36:58;;;;;;;10.65;4.05;;;;;;;14.06;99.98;101064.66;4992054;28;20027;-90
2023/08/04 04:39:23;;;;;;;7.40;3.65;;;;;;;14.05;99.82;101073.41;4989934;28;20049;-90
2023/08/04 04:41:49;;;;;;;6.75;3.60;;;;;;;14.03;99.70;101073.47;4990189;28;20026;-90
2023/08/04 04:44:14;;;;;;;6.22;3.70;;;;;;;14.04;99.81;101069.94;4989299;28;20030;-91
2023/08/04 04:46:39;;;;;;;7.30;3.78;;;;;;;14.04;99.86;101072.56;4975451;28;20023;-91
2023/08/04 04:49:05;;;;;;;9.55;3.78;;;;;;;14.04;100.00;101077.78;4990274;28;20026;-90
2023/08/04 04:51:30;;;;;;;7.40;3.95;;;;;;;14.05;99.85;101078.66;4990728;28;20105;-91
2023/08/04 04:53:56;;;;;;;8.80;4.10;;;;;;;14.06;99.96;101078.59;4990847;28;20054;-91
2023/08/04 04:56:21;;;;;;;8.13;4.00;;;;;;;14.07;100.00;101080.28;4989213;28;20045;-91
2023/08/04 04:58:46;;;;;;;6.88;3.92;;;;;;;14.07;99.89;101072.44;4990516;28;20041;-92
2023/08/04 05:01:11;;;;;;;9.38;4.40;;;;;;;14.08;100.00;101076.78;4990293;28;20386;-91
2023/08/04 05:03:37;;;;;;;7.43;4.20;;;;;;;14.08;100.00;101075.94;4993426;28;20036;-91
2023/08/04 05:06:02;;;;;;;9.75;4.18;;;;;;;14.08;100.00;101089.00;4995650;28;20049;-91
2023/08/04 05:08:28;;;;;;;6.80;3.85;;;;;;;14.07;100.00;101079.47;4996231;28;20497;-93
2023/08/04 05:10:53;;;;;;;7.75;4.32;;;;;;;14.07;100.00;101088.16;4995590;28;20026;-91
2023/08/04 05:13:19;;;;;;;7.05;4.43;;;;;;;14.07;100.00;101090.75;4989725;28;20026;-92
2023/08/04 05:15:47;;;;;;;7.03;4.22;;;;;;;14.07;100.00;101088.16;4993626;28;20077;-91
2023/08/04 05:18:13;;;;;;;11.20;4.30;;;;;;;14.08;100.00;101095.09;4995131;28;20102;-91
2023/08/04 05:20:38;;;;;;;12.38;4.43;;;;;;;14.11;100.00;101097.59;4995164;28;20154;-90
2023/08/04 05:23:03;;;;;;;12.57;4.28;;;;;;;14.13;100.00;101096.69;4996302;28;20105;-91
2023/08/04 05:25:28;;;;;;;7.72;4.32;;;;;;;14.14;100.00;101099.22;4978049;28;20085;-91
2023/08/04 05:27:54;;;;;;;10.90;4.57;;;;;;;14.17;100.00;101103.53;4996451;28;20466;-90
2023/08/04 05:30:19;;;;;;;7.88;4.78;;;;;;;14.19;100.00;101106.91;4996337;28;20035;-92
2023/08/04 05:32:45;;;;;;;8.30;4.63;;;;;;;14.22;100.00;101104.19;4991623;28;20034;-91
2023/08/04 05:35:10;;;;;;;9.80;4.53;;;;;;;14.23;100.00;101109.38;4994021;28;20496;-90
2023/08/04 05:37:36;;;;;;;8.70;4.63;;;;;;;14.25;100.00;101111.94;4994669;28;20046;-92
2023/08/04 05:40:04;;;;;;;10.93;4.95;;;;;;;14.27;100.00;101104.88;4990977;28;20380;-91
2023/08/04 05:42:29;;;;;;;10.98;5.13;;;;;;;14.30;100.00;101110.00;4994344;28;20440;-92
2023/08/04 05:44:54;;;;;;;8.45;4.72;;;;;;;14.35;100.00;101107.22;4987689;28;20105;-90
2023/08/04 05:47:21;;;;;;;8.00;4.90;;;;;;;14.40;100.00;101115.75;4993055;28;20031;-92
2023/08/04 05:49:47;;;;;;;10.50;5.50;;;;;;;14.46;100.00;101112.03;4993500;28;20439;-92
2023/08/04 05:52:13;;;;;;;10.00;4.65;;;;;;;14.50;100.00;101116.25;4993644;28;20033;-92
2023/08/04 05:54:38;;;;;;;11.20;4.90;;;;;;;14.54;100.00;101120.44;4981245;28;20109;-91
2023/08/04 05:57:03;;;;;;;9.52;4.88;;;;;;;14.56;100.00;101121.25;4984776;28;20045;-90
2023/08/04 05:59:29;;;;;;;9.88;5.22;;;;;;;14.62;100.00;101131.50;4985864;28;20101;-91
2023/08/04 06:01:54;;;;;;;7.93;4.88;;;;;;;14.68;100.00;101131.31;4989323;28;20078;-90
2023/08/04 06:04:19;;;;;;;7.93;4.38;;;;;;;14.70;99.48;101139.94;4992725;28;20064;-90
2023/08/04 06:06:44;;;;;;;10.02;5.43;;;;;;;14.70;99.64;101139.09;4993706;28;20062;-91
2023/08/04 06:09:10;;;;;;;9.60;5.40;;;;;;;14.72;99.66;101140.72;4977055;28;20058;-91
2023/08/04 06:11:35;;;;;;;11.45;5.20;;;;;;;14.75;99.59;101142.38;4977020;28;20057;-92
2023/08/04 06:14:00;;;;;;;9.95;5.30;;;;;;;14.81;100.00;101141.28;4988977;28;20500;-91
2023/08/04 06:16:26;;;;;;;10.55;4.93;;;;;;;14.86;99.89;101144.56;4989086;28;20053;-89
2023/08/04 06:18:51;;;;;;;8.35;4.50;;;;;;;14.89;98.52;101141.84;4987276;28;20489;-90
2023/08/04 06:21:16;;;;;;;9.02;4.65;;;;;;;14.89;98.91;101152.31;4992085;28;20030;-91
2023/08/04 06:23:45;;;;;;;10.50;5.03;;;;;;;14.90;98.76;101146.16;4992098;28;20429;-92
2023/08/04 06:26:12;;;;;;;9.05;4.72;;;;;;;14.89;98.80;101149.69;4973991;28;20033;-91
2023/08/04 06:28:37;;;;;;;9.63;4.68;;;;;;;14.94;99.42;101158.22;4992282;28;20027;-92
2023/08/04 06:31:02;;;;;;;9.38;4.88;;;;;;;14.99;99.15;101156.31;4991532;28;20097;-90
2023/08/04 06:33:27;;;;;;;7.47;5.00;;;;;;;15.06;98.64;101162.16;4990714;28;20041;-91
2023/08/04 06:35:53;;;;;;;8.00;4.85;;;;;;;15.12;98.73;101171.53;4987919;28;20053;-92
2023/08/04 06:38:18;;;;;;;10.50;5.07;;;;;;;15.21;98.74;101165.91;4990594;28;20054;-91
2023/08/04 06:40:43;;;;;;;9.32;5.05;;;;;;;15.29;98.56;101174.31;4991135;28;20046;-89
2023/08/04 06:43:08;;;;;;;8.82;4.68;;;;;;;15.38;98.61;101169.63;4991497;28;20045;-91
2023/08/04 06:45:34;;;;;;;9.25;4.43;;;;;;;15.45;98.75;101164.09;4991458;28;20033;-92
2023/08/04 06:47:59;;;;;;;8.43;4.80;;;;;;;15.52;98.85;101172.56;4989519;28;20030;-91
2023/08/04 06:50:24;;;;;;;10.32;4.72;;;;;;;15.57;97.94;101178.44;4993515;28;20424;-91
2023/08/04 06:52:50;;;;;;;6.47;4.43;;;;;;;15.62;97.95;101170.41;4990065;28;20030;-91
2023/08/04 06:55:15;;;;;;;7.53;4.65;;;;;;;15.70;97.85;101177.94;4991360;28;20474;-91
2023/08/04 06:57:40;;;;;;;7.43;4.63;;;;;;;15.80;97.67;101184.50;4991293;28;20026;-90
2023/08/04 07:00:08;;;;;;;8.20;4.90;;;;;;;15.89;97.86;101184.13;4991031;28;20036;-91
2023/08/04 07:02:34;;;;;;;8.82;4.15;;;;;;;15.97;97.31;101181.16;4972136;28;20606;-90
2023/08/04 07:04:59;;;;;;;6.50;4.10;;;;;;;16.04;97.87;101187.03;4989474;28;20028;-90
2023/08/04 07:07:24;;;;;;;7.57;3.95;;;;;;;16.08;96.89;101193.84;4990121;28;20034;-90
2023/08/04 07:09:53;;;;;;;10.10;3.85;;;;;;;16.10;96.71;101194.63;4991725;28;20091;-95
2023/08/04 07:12:18;;;;;;;5.93;3.42;;;;;;;16.12;96.40;101190.16;4988013;28;20055;-89
2023/08/04 07:14:43;;;;;;;11.05;3.65;;;;;;;16.12;95.59;101192.78;4989851;28;20413;-88
2023/08/04 07:17:08;;;;;;;6.85;3.45;;;;;;;16.13;95.83;101191.88;4989537;28;20050;-89
2023/08/04 07:19:34;;;;;;;6.97;3.00;;;;;;;16.13;95.56;101191.03;4988860;28;20439;-88
2023/08/04 07:21:59;;;;;;;6.00;3.08;;;;;;;16.14;95.48;101200.63;4988310;28;20149;-90
2023/08/04 07:24:25;;;;;;;5.15;3.35;;;;;;;16.17;95.37;101200.47;4990407;28;20038;-89
2023/08/04 07:26:50;;;;;;;6.00;2.80;;;;;;;16.22;95.97;101204.63;4989928;28;20504;-89
2023/08/04 07:29:15;;;;;;;5.72;3.22;;;;;;;16.28;95.62;101202.63;4989701;28;20034;-91
2023/08/04 07:31:41;;;;;;;4.72;2.58;;;;;;;16.31;95.32;101205.94;4986148;28;20038;-90
2023/08/04 07:34:06;;;;;;;6.72;2.60;;;;;;;16.34;95.38;101199.72;4987811;28;20085;-90
2023/08/04 07:36:31;;;;;;;4.90;2.13;;;;;;;16.36;94.33;101195.28;4971001;28;20041;-89
2023/08/04 07:38:56;;;;;;;4.15;2.15;;;;;;;16.33;92.15;101201.50;4989515;28;20488;-90
2023/08/04 07:41:24;;;;;;;5.40;1.90;;;;;;;16.35;91.57;101209.31;4987642;28;20030;-89
2023/08/04 07:43:50;;;;;;;5.22;1.88;;;;;;;16.36;92.09;101213.66;4985969;28;20045;-90
2023/08/04 07:46:33;;;;;;;5.28;2.20;;;;;;;16.39;92.29;101208.25;4987764;28;20034;-90
2023/08/04 07:48:58;;;;;;;5.25;2.42;;;;;;;16.41;91.94;101206.41;4989485;28;20050;-88
2023/08/04 07:51:24;;;;;;;3.83;1.95;;;;;;;16.47;93.65;101206.13;4988379;28;20107;-90
2023/08/04 07:53:49;;;;;;;3.83;1.95;;;;;;;16.53;91.64;101216.38;4983867;28;20128;-90
2023/08/04 07:56:15;;;;;;;5.38;1.88;;;;;;;16.57;91.77;101211.00;4983386;28;20026;-90
2023/08/04 07:58:41;;;;;;;5.68;2.25;;;;;;;16.60;92.51;101214.31;4981769;28;20030;-90
2023/08/04 08:01:06;;;;;;;4.40;2.00;;;;;;;16.63;90.06;101231.72;4984909;28;20036;-90
2023/08/04 08:03:33;;;;;;;4.32;2.00;;;;;;;16.64;90.86;101217.66;4985652;28;20037;-91
2023/08/04 08:05:59;;;;;;;4.38;1.83;;;;;;;16.67;91.95;101222.78;4986014;28;20110;-90
2023/08/04 08:08:25;;;;;;;3.85;1.85;;;;;;;16.72;90.83;101226.06;4988797;28;20129;-91
2023/08/04 08:10:50;;;;;;;4.35;2.17;;;;;;;16.78;90.72;101225.75;4986236;28;20039;-89
2023/08/04 08:13:15;;;;;;;3.97;2.00;;;;;;;16.84;93.02;101225.47;4985900;28;20070;-90
2023/08/04 08:15:41;;;;;;;4.13;2.03;;;;;;;16.88;91.33;101228.81;4967989;28;20125;-89
2023/08/04 08:18:06;;;;;;;3.33;2.08;;;;;;;16.91;89.97;101231.31;4989398;28;20026;-91
2023/08/04 08:20:31;;;;;;;4.55;2.00;;;;;;;16.92;89.76;101232.16;4969759;28;20038;-90
2023/08/04 08:22:57;;;;;;;3.50;1.90;;;;;;;16.92;88.38;101226.88;4988314;28;20030;-88
2023/08/04 08:25:22;;;;;;;2.97;1.92;;;;;;;16.95;88.81;101226.78;4988967;28;20142;-88
2023/08/04 08:27:48;;;;;;;4.20;1.90;;;;;;;16.96;87.91;101233.75;4989133;28;20022;-89
2023/08/04 08:30:13;;;;;;;2.70;1.52;;;;;;;17.02;87.92;101243.13;4990072;28;20389;-90
2023/08/04 08:32:38;;;;;;;5.22;1.70;;;;;;;17.05;86.42;101243.84;4988832;28;20422;-91
2023/08/04 08:35:04;;;;;;;3.20;1.65;;;;;;;17.07;87.59;101242.00;4987499;28;20030;-90
2023/08/04 08:37:29;;;;;;;5.22;1.90;;;;;;;17.12;87.74;101250.50;4985090;28;20109;-90
2023/08/04 08:39:54;;;;;;;3.28;1.63;;;;;;;17.20;87.39;101251.94;4974765;28;20041;-89
2023/08/04 08:42:20;;;;;;;4.38;1.90;;;;;;;17.28;86.99;101255.03;4990983;28;20034;-89
2023/08/04 08:44:45;;;;;;;4.80;1.85;;;;;;;17.36;87.22;101250.28;4989629;28;20066;-88
2023/08/04 08:47:10;;;;;;;3.50;1.77;;;;;;;17.44;87.69;101250.75;4991108;28;20385;-89
2023/08/04 08:49:47;;;;;;;4.72;1.80;;;;;;;17.50;87.04;101252.25;4992477;28;20034;-89
2023/08/04 08:52:13;;;;;;;2.70;1.60;;;;;;;17.49;83.20;101258.44;4993385;28;20033;-90
2023/08/04 08:54:38;;;;;;;3.67;1.75;;;;;;;17.48;83.67;101253.25;4990685;28;20066;-90
2023/08/04 08:57:07;;;;;;;3.38;2.00;;;;;;;17.45;83.21;101251.63;4993748;28;20011;-91
2023/08/04 08:59:33;;;;;;;2.40;1.50;;;;;;;17.44;84.12;101269.16;4988081;28;20030;-90
2023/08/04 09:01:58;;;;;;;2.97;1.58;;;;;;;17.43;83.82;101264.00;4988342;28;20026;-90
2023/08/04 09:04:24;;;;;;;3.90;1.52;;;;;;;17.43;84.83;101269.25;4991644;28;20082;-90
2023/08/04 09:06:50;;;;;;;2.50;1.70;;;;;;;17.44;85.16;101271.78;4992044;28;20354;-90
2023/08/04 09:09:15;;;;;;;5.90;1.80;;;;;;;17.43;84.36;101272.72;4990585;28;20063;-89
2023/08/04 09:11:41;;;;;;;2.92;1.50;;;;;;;17.41;83.82;101271.97;4991048;28;20044;-90
2023/08/04 09:14:06;;;;;;;3.22;1.42;;;;;;;17.43;83.78;101274.50;4990492;28;20474;-90
2023/08/04 09:16:33;;;;;;;3.30;1.80;;;;;;;17.43;84.04;101283.25;4988988;28;20037;-90
2023/08/04 09:19:08;;;;;;;3.65;1.80;;;;;;;17.45;84.67;101273.50;4989828;28;20053;-91
2023/08/04 09:21:35;;;;;;;2.60;1.17;;;;;;;17.48;81.85;101274.28;4987072;28;20042;-96
2023/08/04 09:24:02;;;;;;;2.45;1.48;;;;;;;17.48;81.78;101275.16;4990003;28;20034;-90
2023/08/04 09:26:42;;;;;;;2.15;1.30;;;;;;;17.53;83.19;101273.13;4985677;28;20113;-90
2023/08/04 09:29:08;;;;;;;2.95;1.30;;;;;;;17.57;81.56;101281.75;4988171;28;20034;-90
2023/08/04 09:31:38;;;;;;;3.65;1.27;;;;;;;17.61;81.22;101280.66;4988120;28;20027;-90
2023/08/04 09:34:08;;;;;;;2.00;1.17;;;;;;;17.67;83.20;101283.00;4988202;28;20030;-89
2023/08/04 09:36:44;;;;;;;1.50;1.10;;;;;;;17.78;82.75;101278.97;4987038;28;20049;-90
2023/08/04 09:39:10;;;;;;;2.80;1.23;;;;;;;17.84;81.52;101279.56;4986467;28;20030;-91
2023/08/04 09:41:42;;;;;;;3.45;1.27;;;;;;;17.90;81.13;101286.28;4987542;28;20041;-90
2023/08/04 09:44:08;;;;;;;3.35;1.20;;;;;;;17.91;79.94;101282.72;4988526;28;20496;-89
2023/08/04 09:46:53;;;;;;;3.65;1.23;;;;;;;17.96;81.71;101285.13;4988126;28;20046;-90
2023/08/04 09:49:19;;;;;;;2.72;1.10;;;;;;;17.97;79.06;101284.19;4989682;28;20023;-90
2023/08/04 09:51:45;;;;;;;3.88;1.35;;;;;;;17.96;78.61;101283.31;4989420;28;20053;-90
2023/08/04 09:54:10;;;;;;;2.00;1.25;;;;;;;17.98;78.81;101286.78;4988057;28;20470;-89
2023/08/04 09:56:36;;;;;;;3.20;1.30;;;;;;;18.01;77.00;101291.06;4986418;28;20030;-89
2023/08/04 09:59:02;;;;;;;2.85;1.50;;;;;;;18.10;80.09;101273.94;4985671;28;20073;-90
2023/08/04 10:01:28;;;;;;;3.47;1.33;;;;;;;18.19;77.52;101281.34;4983900;28;20073;-92
2023/08/04 10:03:57;;;;;;;3.13;1.27;;;;;;;18.24;78.10;101284.63;4985805;28;20073;-89
2023/08/04 10:06:23;;;;;;;3.40;1.27;;;;;;;18.23;77.91;101276.78;4986470;28;20038;-91
2023/08/04 10:08:50;;;;;;;1.55;1.13;;;;;;;18.20;77.37;101286.53;5000737;28;20030;-91
2023/08/04 10:11:15;;;;;;;2.85;1.38;;;;;;;18.18;78.38;101282.28;4987485;28;20026;-91
2023/08/04 10:13:42;;;;;;;2.85;1.33;;;;;;;18.16;77.97;101285.00;4986521;28;20697;-91
2023/08/04 10:16:13;;;;;;;2.72;1.33;;;;;;;18.11;81.03;101283.50;4986587;28;20030;-92
2023/08/04 10:18:51;;;;;;;2.47;1.40;;;;;;;18.13;81.92;101279.91;4986821;28;20116;-91
2023/08/04 10:21:18;;;;;;;3.47;1.63;;;;;;;18.10;80.32;101287.09;4984212;28;20488;-90
2023/08/04 10:23:44;;;;;;;2.03;1.10;;;;;;;18.02;75.49;101293.59;4985234;28;20030;-90
2023/08/04 10:26:13;;;;;;;1.92;1.13;;;;;;;17.95;76.19;101297.41;4971121;28;20037;-89
2023/08/04 10:29:03;;;;;;;1.45;1.00;;;;;;;17.91;78.32;101280.09;4986091;28;20034;-89
2023/08/04 10:31:51;;;;;;;1.90;0.70;;;;;;;17.89;76.65;101292.47;4989877;28;20034;-88
2023/08/04 10:34:31;;;;;;;1.63;0.70;;;;;;;17.92;76.84;101292.34;4988015;28;20034;-89
2023/08/04 10:37:11;;;;;;;1.58;0.82;;;;;;;17.98;78.10;101294.66;4988141;28;20038;-89
2023/08/04 10:39:39;;;;;;;2.13;1.00;;;;;;;18.03;75.90;101300.56;4989045;28;20038;-89
2023/08/04 10:42:12;;;;;;;2.35;1.00;;;;;;;18.11;77.05;101288.78;4989192;28;20030;-89
2023/08/04 10:44:54;;;;;;;3.20;1.35;;;;;;;18.18;77.97;101287.56;4988894;28;20034;-88
2023/08/04 10:47:29;;;;;;;2.72;1.10;;;;;;;18.27;76.46;101287.09;4989030;28;20097;-90
2023/08/04 10:49:55;;;;;;;4.82;1.30;;;;;;;18.42;78.54;101293.34;4989047;28;20026;-88
2023/08/04 10:52:21;;;;;;;2.50;1.30;;;;;;;18.57;76.51;101299.63;4990384;28;20026;-91
2023/08/04 10:54:47;;;;;;;1.92;1.42;;;;;;;18.69;76.35;101299.88;4991540;28;20038;-93
2023/08/04 10:57:19;;;;;;;5.28;2.00;;;;;;;18.69;74.86;101294.63;4990083;28;20154;-93
2023/08/04 10:59:44;;;;;;;4.93;1.98;;;;;;;18.76;75.26;101311.81;4989775;28;20030;-94
2023/08/04 11:02:09;;;;;;;2.20;1.60;;;;;;;18.78;74.12;101309.97;4988262;28;20030;-91
2023/08/04 11:04:38;;;;;;;3.83;1.50;;;;;;;18.83;75.75;101309.72;4988540;28;20489;-90
2023/08/04 11:07:03;;;;;;;3.30;1.38;;;;;;;18.89;74.01;101315.50;4989040;28;20026;-89
2023/08/04 11:09:29;;;;;;;2.70;1.35;;;;;;;18.98;74.25;101313.31;4989936;28;20031;-90
2023/08/04 11:11:54;;;;;;;3.58;1.33;;;;;;;19.03;74.01;101306.03;4987261;28;20037;-90
2023/08/04 11:14:19;;;;;;;3.25;1.30;;;;;;;19.05;72.91;101306.81;4988840;28;20037;-90
2023/08/04 11:16:46;;;;;;;1.95;1.35;;;;;;;19.07;74.02;101307.56;4988253;28;20469;-91
2023/08/04 11:19:11;;;;;;;3.40;1.60;;;;;;;19.02;72.20;101309.59;4988580;28;20490;-93
2023/08/04 11:21:36;;;;;;;5.85;1.85;;;;;;;18.93;72.96;101316.19;4989022;28;20026;-92